Latest Coastal Weather Observations for Mallacoota

IDV60701

Issued at 5:25 am EST Thursday 17 April 2014 (issued every 10 minutes, with the page automatically refreshed every 10 minutes)

About coastal observations | Map of coastal stations | Coastal observations for VIC | Marine services | Other Formats
Station Details ID: 084084 Name: MALLACOOTA Lat: -37.60 Lon: 149.73 Height: 22.0 m
Data from the previous 72 hours. | See also: Recent months at Mallacoota
Date/Time
EST
Temp

°C
Wind Pressure Rain
since 9am
mm
Weather Cloud Vis
km
Sea
Height
m
Swell
Dir
 
Speed
knots
Gust
knots
hPa Trend Height
m
Period
s
Dir
17/05:00am 10.7 WNW 7 9 1019.5 - 0.0 - - - - - - -
17/04:30am 10.8 WNW 7 9 1019.3 - 0.0 - - - - - - -
17/04:00am 10.7 WNW 7 8 1019.2 - 0.0 - - - - - - -
17/03:30am 10.7 WNW 6 8 1019.2 - 0.0 - - - - - - -
17/03:00am 11.0 WNW 6 8 1019.0 - 0.0 - - - - - - -
17/02:30am 10.9 WNW 6 7 1019.1 - 0.0 - - - - - - -
17/02:00am 11.1 WNW 6 8 1019.4 - 0.0 - - - - - - -
17/01:30am 11.2 WNW 6 8 1019.4 - 0.0 - - - - - - -
17/01:00am 11.1 WNW 7 9 1019.6 - 0.0 - - - - - - -
17/12:30am 11.4 WNW 7 9 1019.8 - 0.0 - - - - - - -
17/12:00am 11.3 WNW 6 8 1019.8 - 0.0 - - - - - - -
 
Date/Time
EST
Temp

°C
Wind Pressure Rain
since 9am
mm
Weather Cloud Vis
km
Sea
Height
m
Swell
Dir
 
Speed
knots
Gust
knots
hPa Trend Height
m
Period
s
Dir
16/11:30pm 11.5 WNW 6 8 1020.1 - 0.0 - - - - - - -
16/11:00pm 11.5 WNW 7 9 1020.3 - 0.0 - - - - - - -
16/10:30pm 11.7 WNW 7 8 1020.4 - 0.0 - - - - - - -
16/10:00pm 11.8 WNW 7 8 1020.5 - 0.0 - - - - - - -
16/09:30pm 12.0 WNW 6 8 1020.5 - 0.0 - - - - - - -
16/09:00pm 12.3 WNW 6 7 1020.3 - 0.0 - - - - - - -
16/08:30pm 12.3 W 4 5 1020.3 - 0.0 - - - - - - -
16/08:00pm 12.8 W 4 6 1020.1 - 0.0 - - - - - - -
16/07:30pm 12.9 WNW 4 6 1019.9 - 0.0 - - - - - - -
16/07:00pm 14.0 SSW 2 4 1019.8 - 0.0 - - - - - - -
16/06:30pm 13.7 WNW 2 5 1019.7 - 0.0 - - - - - - -
16/06:00pm 14.3 W 4 6 1019.4 - 0.0 - - - - - - -
16/05:30pm 15.7 WSW 4 6 1019.4 - 0.0 - - - - - - -
16/05:00pm 17.0 SSW 5 8 1019.3 - 0.0 - - - - - - -
16/04:30pm 17.4 SSW 5 8 1019.2 - 0.0 - - - - - - -
16/04:00pm 17.9 SSW 7 10 1019.2 - 0.0 - - - - - - -
16/03:30pm 18.1 S 8 11 1019.3 - 0.0 - - - - - - -
16/03:00pm 18.2 S 8 10 1019.3 - 0.0 - - - - - - -
16/02:30pm 19.0 S 7 11 1019.5 - 0.0 - - - - - - -
16/02:00pm 18.4 S 7 10 1019.5 - 0.0 - - - - - - -
16/01:30pm 18.7 S 6 8 1019.8 - 0.0 - - - - - - -
16/01:00pm 17.8 S 6 9 1019.9 - 0.0 - - - - - - -
16/12:30pm 17.7 S 4 6 1020.2 - 0.0 - - - - - - -
16/12:00pm 17.2 S 6 9 1020.4 - 0.0 - - - - - - -
16/11:30am 17.2 S 5 9 1020.8 - 0.0 - - - - - - -
16/11:00am 17.8 SW 5 7 1021.0 - 0.0 - - - - - - -
16/10:30am 18.1 W 6 9 1021.1 - 0.0 - - - - - - -
16/10:00am 17.3 W 6 10 1021.4 - 0.0 - - - - - - -
16/09:30am 16.0 W 7 9 1021.6 - 0.0 - - - - - - -
16/09:00am 14.8 WNW 6 10 1021.8 - 0.2 - - - - - - -
16/08:30am 14.5 W 7 12 1022.0 - 0.2 - - - - - - -
16/08:00am 13.9 WSW 4 6 1021.9 - 0.2 - - - - - - -
16/07:30am 13.5 WNW 5 9 1021.5 - 0.2 - - - - - - -
16/07:00am 13.4 W 6 9 1021.3 - 0.2 - - - - - - -
16/06:30am 13.3 W 6 7 1021.0 - 0.2 - - - - - - -
16/06:00am 13.1 W 6 9 1020.8 - 0.2 - - - - - - -
16/05:30am 13.2 W 6 9 1020.9 - 0.2 - - - - - - -
16/05:00am 13.3 W 6 9 1020.9 - 0.2 - - - - - - -
16/04:30am 13.2 W 6 9 1021.0 - 0.2 - - - - - - -
16/04:00am 13.2 W 7 9 1021.0 - 0.2 - - - - - - -
16/03:30am 13.4 WNW 6 9 1021.0 - 0.2 - - - - - - -
16/03:00am 13.6 W 6 9 1020.9 - 0.2 - - - - - - -
16/02:30am 13.5 W 5 8 1021.2 - 0.2 - - - - - - -
16/02:00am 13.4 WNW 6 8 1021.5 - 0.2 - - - - - - -
16/01:30am 13.3 WNW 6 8 1021.9 - 0.2 - - - - - - -
16/01:00am 13.2 WNW 5 8 1022.2 - 0.2 - - - - - - -
16/12:30am 13.7 WNW 6 8 1022.3 - 0.2 - - - - - - -
16/12:00am 13.4 W 4 8 1022.5 - 0.2 - - - - - - -
 
Date/Time
EST
Temp

°C
Wind Pressure Rain
since 9am
mm
Weather Cloud Vis
km
Sea
Height
m
Swell
Dir
 
Speed
knots
Gust
knots
hPa Trend Height
m
Period
s
Dir
15/11:30pm 13.5 W 5 8 1022.7 - 0.2 - - - - - - -
15/11:00pm 13.5 W 5 7 1022.9 - 0.2 - - - - - - -
15/10:30pm 13.2 W 5 7 1023.0 - 0.2 - - - - - - -
15/10:00pm 13.3 WNW 5 7 1023.1 - 0.2 - - - - - - -
15/09:30pm 13.1 W 5 7 1023.1 - 0.2 - - - - - - -
15/09:00pm 13.4 W 4 7 1023.1 - 0.2 - - - - - - -
15/08:30pm 14.1 W 5 7 1023.0 - 0.2 - - - - - - -
15/08:00pm 14.2 WNW 5 6 1022.9 - 0.2 - - - - - - -
15/07:30pm 14.8 WSW 5 8 1023.0 - 0.2 - - - - - - -
15/07:00pm 14.9 WSW 4 6 1022.9 - 0.2 - - - - - - -
15/06:30pm 16.9 S 9 15 1022.7 - 0.2 - - - - - - -
15/06:00pm 16.8 S 8 12 1022.5 - 0.2 - - - - - - -
15/05:30pm 17.1 S 9 13 1022.3 - 0.2 - - - - - - -
15/05:00pm 17.2 S 11 16 1022.1 - 0.2 - - - - - - -
15/04:30pm 17.3 S 12 18 1022.0 - 0.2 - - - - - - -
15/04:00pm 17.2 S 9 13 1021.9 - 0.2 - - - - - - -
15/03:30pm 17.6 S 11 17 1021.8 - 0.2 - - - - - - -
15/03:00pm 18.0 SSW 9 13 1021.8 - 0.2 - - - - - - -
15/02:30pm 18.1 S 11 16 1021.9 - 0.2 - - - - - - -
15/02:00pm 17.4 S 13 16 1021.9 - 0.2 - - - - - - -
15/01:30pm 17.9 S 12 19 1021.8 - 0.2 - - - - - - -
15/01:00pm 17.6 S 13 19 1021.9 - 0.2 - - - - - - -
15/12:30pm 17.4 S 13 19 1022.1 - 0.2 - - - - - - -
15/12:00pm 17.3 S 14 19 1022.5 - 0.2 - - - - - - -
15/11:30am 17.2 S 12 19 1022.7 - 0.2 - - - - - - -
15/11:00am 16.7 S 14 19 1022.8 - 0.2 - - - - - - -
15/10:30am 15.1 SW 6 8 1023.0 - 0.2 - - - - - - -
15/10:00am 14.4 W 8 12 1023.0 - 0.2 - - - - - - -
15/09:30am 14.2 W 7 10 1022.9 - 0.2 - - - - - - -
15/09:00am 13.6 W 6 11 1023.1 - 4.8 - - - - - - -
15/08:30am 13.1 W 7 12 1022.8 - 4.4 - - - - - - -
15/08:00am 13.0 WNW 6 10 1022.7 - 3.4 - - - - - - -
15/07:30am 12.7 W 7 11 1022.6 - 3.0 - - - - - - -
15/07:00am 12.7 W 8 12 1022.4 - 2.8 - - - - - - -
15/06:30am 12.7 W 7 12 1022.0 - 2.0 - - - - - - -
15/06:00am 12.9 W 6 10 1022.0 - 2.0 - - - - - - -
15/05:30am 12.9 W 5 8 1021.9 - 1.6 - - - - - - -
15/05:00am 12.9 WNW 6 9 1021.6 - 1.2 - - - - - - -
15/04:30am 12.8 W 7 11 1021.6 - 1.0 - - - - - - -
15/04:00am 13.1 W 7 11 1021.5 - 1.0 - - - - - - -
15/03:30am 13.4 WSW 7 12 1021.6 - 0.8 - - - - - - -
15/03:00am 13.7 W 7 12 1021.3 - 0.2 - - - - - - -
15/02:30am 13.6 W 8 12 1021.5 - 0.2 - - - - - - -
15/02:00am 13.7 W 8 12 1021.8 - 0.2 - - - - - - -
15/01:30am 13.8 W 6 10 1022.0 - 0.2 - - - - - - -
15/01:00am 14.2 W 5 8 1022.2 - 0.2 - - - - - - -
15/12:30am 14.0 WNW 7 11 1022.0 - 0.2 - - - - - - -
15/12:00am 13.9 W 7 11 1022.2 - 0.2 - - - - - - -
 
Date/Time
EST
Temp

°C
Wind Pressure Rain
since 9am
mm
Weather Cloud Vis
km
Sea
Height
m
Swell
Dir
 
Speed
knots
Gust
knots
hPa Trend Height
m
Period
s
Dir
14/11:30pm 13.8 WNW 7 10 1022.1 - 0.2 - - - - - - -
14/11:00pm 13.8 W 8 11 1022.5 - 0.2 - - - - - - -
14/10:30pm 13.5 W 7 11 1022.6 - 0.2 - - - - - - -
14/10:00pm 13.3 WNW 7 11 1022.7 - 0.2 - - - - - - -
14/09:30pm 13.2 WNW 6 9 1022.7 - 0.2 - - - - - - -
14/09:00pm 13.5 W 6 9 1022.7 - 0.2 - - - - - - -
14/08:30pm 14.1 WNW 6 8 1022.6 - 0.2 - - - - - - -
14/08:00pm 14.0 W 6 10 1022.7 - 0.2 - - - - - - -
14/07:30pm 14.2 WNW 6 8 1022.6 - 0.2 - - - - - - -
14/07:00pm 14.6 W 4 6 1022.5 - 0.2 - - - - - - -
14/06:30pm 15.2 WSW 4 6 1022.2 - 0.2 - - - - - - -
14/06:00pm 15.7 WSW 4 6 1021.8 - 0.2 - - - - - - -
14/05:30pm 16.0 SW 5 7 1021.6 - 0.2 - - - - - - -
14/05:00pm 16.3 SW 7 10 1021.6 - 0.2 - - - - - - -
14/04:30pm 16.6 SW 6 8 1021.5 - 0.2 - - - - - - -
14/04:00pm 17.0 SSW 8 13 1021.5 - 0.2 - - - - - - -
14/03:30pm 16.9 S 9 14 1021.4 - 0.2 - - - - - - -
14/03:00pm 16.9 S 11 16 1021.4 - 0.2 - - - - - - -
14/02:30pm 17.3 S 8 14 1021.5 - 0.2 - - - - - - -
14/02:00pm 17.8 S 12 15 1021.5 - 0.2 - - - - - - -
14/01:30pm 18.4 S 9 15 1021.5 - 0.2 - - - - - - -
14/01:00pm 17.6 S 11 19 1021.7 - 0.2 - - - - - - -
14/12:30pm 17.3 SSW 8 13 1021.8 - 0.2 - - - - - - -
14/12:00pm 17.3 SW 6 10 1022.2 - 0.2 - - - - - - -
14/11:30am 17.8 WSW 7 11 1022.4 - 0.2 - - - - - - -
14/11:00am 18.1 SW 6 9 1022.5 - 0.2 - - - - - - -
14/10:30am 15.7 W 5 8 1022.7 - 0.0 - - - - - - -
14/10:00am 15.2 W 5 9 1022.7 - 0.0 - - - - - - -
14/09:30am 14.6 W 5 8 1022.7 - 0.0 - - - - - - -
14/09:00am 14.0 W 6 12 1022.6 - 3.2 - - - - - - -
14/08:30am 13.6 W 6 10 1022.5 - 3.2 - - - - - - -
14/08:00am 13.7 W 4 7 1022.2 - 3.2 - - - - - - -
14/07:30am 13.0 W 5 8 1022.0 - 3.2 - - - - - - -
14/07:00am 12.8 W 6 10 1021.4 - 3.2 - - - - - - -
14/06:30am 12.5 W 6 10 1021.4 - 3.2 - - - - - - -
14/06:00am 12.5 W 6 8 1021.3 - 3.2 - - - - - - -
14/05:30am 12.4 W 8 13 1021.1 - 2.8 - - - - - - -

Other Formats:

Comma delimited format used in spreadsheet applications
http://www.bom.gov.au/fwo/IDV60701/IDV60701.94935.axf

JavaScript Object Notation format (JSON) in row-major order
http://www.bom.gov.au/fwo/IDV60701/IDV60701.94935.json